sensor_id;sensor_type;location;lat;lon;timestamp;pressure;altitude;pressure_sealevel;temperature;humidity
59274;BME280;45044;41.572;24.730;2022-09-09T00:04:34;91785.63;;;12.60;100.00
59274;BME280;45044;41.572;24.730;2022-09-09T00:07:21;91789.00;;;12.49;100.00
59274;BME280;45044;41.572;24.730;2022-09-09T00:10:04;91788.25;;;12.49;100.00
59274;BME280;45044;41.572;24.730;2022-09-09T00:12:38;91786.00;;;12.54;100.00
59274;BME280;45044;41.572;24.730;2022-09-09T00:15:19;91778.47;;;12.56;100.00
59274;BME280;45044;41.572;24.730;2022-09-09T00:29:04;91773.91;;;12.35;100.00
59274;BME280;45044;41.572;24.730;2022-09-09T00:31:32;91774.69;;;12.43;100.00
59274;BME280;45044;41.572;24.730;2022-09-09T00:34:05;91753.59;;;12.43;100.00
59274;BME280;45044;41.572;24.730;2022-09-09T00:36:38;91757.75;;;12.44;100.00
59274;BME280;45044;41.572;24.730;2022-09-09T00:39:05;91762.66;;;12.49;100.00
59274;BME280;45044;41.572;24.730;2022-09-09T00:44:33;91762.59;;;12.34;100.00
59274;BME280;45044;41.572;24.730;2022-09-09T00:53:21;91754.59;;;12.09;100.00
59274;BME280;45044;41.572;24.730;2022-09-09T00:55:55;91757.28;;;12.16;100.00
59274;BME280;45044;41.572;24.730;2022-09-09T00:58:26;91757.31;;;12.27;100.00
59274;BME280;45044;41.572;24.730;2022-09-09T01:01:03;91748.66;;;12.23;100.00
59274;BME280;45044;41.572;24.730;2022-09-09T01:03:34;91744.53;;;12.33;100.00
59274;BME280;45044;41.572;24.730;2022-09-09T01:09:04;91747.81;;;12.08;100.00
59274;BME280;45044;41.572;24.730;2022-09-09T01:17:04;91760.69;;;12.17;100.00
59274;BME280;45044;41.572;24.730;2022-09-09T01:22:13;91754.19;;;12.03;100.00
59274;BME280;45044;41.572;24.730;2022-09-09T01:27:36;91744.00;;;11.91;100.00
59274;BME280;45044;41.572;24.730;2022-09-09T01:30:11;91739.88;;;11.93;100.00
59274;BME280;45044;41.572;24.730;2022-09-09T01:32:45;91741.78;;;12.00;100.00
59274;BME280;45044;41.572;24.730;2022-09-09T01:35:31;91742.16;;;12.02;100.00
59274;BME280;45044;41.572;24.730;2022-09-09T01:38:00;91738.38;;;12.03;100.00
59274;BME280;45044;41.572;24.730;2022-09-09T01:40:27;91722.56;;;11.96;100.00
59274;BME280;45044;41.572;24.730;2022-09-09T01:42:54;91735.38;;;12.01;100.00
59274;BME280;45044;41.572;24.730;2022-09-09T01:45:22;91735.03;;;12.06;100.00
59274;BME280;45044;41.572;24.730;2022-09-09T01:47:52;91731.56;;;11.91;100.00
59274;BME280;45044;41.572;24.730;2022-09-09T01:50:20;91726.28;;;11.80;100.00
59274;BME280;45044;41.572;24.730;2022-09-09T01:52:50;91752.69;;;12.02;100.00
59274;BME280;45044;41.572;24.730;2022-09-09T01:55:28;91740.66;;;11.97;100.00
59274;BME280;45044;41.572;24.730;2022-09-09T02:03:56;91727.47;;;12.01;100.00
59274;BME280;45044;41.572;24.730;2022-09-09T02:06:38;91740.63;;;11.94;100.00
59274;BME280;45044;41.572;24.730;2022-09-09T02:09:06;91741.00;;;12.00;100.00
59274;BME280;45044;41.572;24.730;2022-09-09T02:11:34;91738.31;;;11.81;100.00
59274;BME280;45044;41.572;24.730;2022-09-09T02:14:06;91736.03;;;11.76;100.00
59274;BME280;45044;41.572;24.730;2022-09-09T02:16:50;91748.84;;;11.81;100.00
59274;BME280;45044;41.572;24.730;2022-09-09T02:19:23;91739.81;;;11.82;100.00
59274;BME280;45044;41.572;24.730;2022-09-09T02:21:55;91736.81;;;11.80;100.00
59274;BME280;45044;41.572;24.730;2022-09-09T02:24:22;91728.84;;;11.66;100.00
59274;BME280;45044;41.572;24.730;2022-09-09T02:26:52;91733.75;;;11.74;100.00
59274;BME280;45044;41.572;24.730;2022-09-09T02:29:23;91736.41;;;11.74;100.00
59274;BME280;45044;41.572;24.730;2022-09-09T02:31:52;91728.47;;;11.71;100.00
59274;BME280;45044;41.572;24.730;2022-09-09T02:34:23;91721.75;;;11.77;100.00
59274;BME280;45044;41.572;24.730;2022-09-09T02:36:52;91727.44;;;11.86;100.00
59274;BME280;45044;41.572;24.730;2022-09-09T02:39:20;91727.38;;;11.72;100.00
59274;BME280;45044;41.572;24.730;2022-09-09T02:41:47;91721.72;;;11.70;100.00
59274;BME280;45044;41.572;24.730;2022-09-09T02:44:16;91720.25;;;11.80;100.00
59274;BME280;45044;41.572;24.730;2022-09-09T02:47:12;91734.16;;;11.77;100.00
59274;BME280;45044;41.572;24.730;2022-09-09T02:49:57;91728.44;;;11.60;100.00
59274;BME280;45044;41.572;24.730;2022-09-09T02:55:04;91732.47;;;11.39;100.00
59274;BME280;45044;41.572;24.730;2022-09-09T02:57:34;91730.28;;;11.52;100.00
59274;BME280;45044;41.572;24.730;2022-09-09T03:00:01;91730.66;;;11.54;100.00
59274;BME280;45044;41.572;24.730;2022-09-09T03:02:28;91721.63;;;11.52;100.00
59274;BME280;45044;41.572;24.730;2022-09-09T03:04:54;91715.25;;;11.56;100.00
59274;BME280;45044;41.572;24.730;2022-09-09T03:07:21;91716.03;;;11.60;100.00
59274;BME280;45044;41.572;24.730;2022-09-09T03:09:48;91725.44;;;11.65;100.00
59274;BME280;45044;41.572;24.730;2022-09-09T03:12:15;91723.19;;;11.67;100.00
59274;BME280;45044;41.572;24.730;2022-09-09T03:14:42;91725.81;;;11.64;100.00
59274;BME280;45044;41.572;24.730;2022-09-09T03:17:12;91711.88;;;11.52;100.00
59274;BME280;45044;41.572;24.730;2022-09-09T03:19:38;91736.38;;;11.67;100.00
59274;BME280;45044;41.572;24.730;2022-09-09T03:22:05;91733.38;;;11.72;100.00
59274;BME280;45044;41.572;24.730;2022-09-09T03:24:32;91718.28;;;11.62;100.00
59274;BME280;45044;41.572;24.730;2022-09-09T03:26:59;91732.22;;;11.62;100.00
59274;BME280;45044;41.572;24.730;2022-09-09T03:29:25;91733.69;;;11.60;100.00
59274;BME280;45044;41.572;24.730;2022-09-09T03:31:52;91737.84;;;11.61;100.00
59274;BME280;45044;41.572;24.730;2022-09-09T03:34:19;91734.06;;;11.58;100.00
59274;BME280;45044;41.572;24.730;2022-09-09T03:36:45;91732.16;;;11.52;100.00
59274;BME280;45044;41.572;24.730;2022-09-09T03:39:14;91738.22;;;11.56;100.00
59274;BME280;45044;41.572;24.730;2022-09-09T03:41:41;91726.13;;;11.51;100.00
59274;BME280;45044;41.572;24.730;2022-09-09T03:44:08;91739.34;;;11.58;100.00
59274;BME280;45044;41.572;24.730;2022-09-09T03:46:35;91730.66;;;11.54;100.00
59274;BME280;45044;41.572;24.730;2022-09-09T03:49:01;91713.31;;;11.42;100.00
59274;BME280;45044;41.572;24.730;2022-09-09T03:51:28;91743.47;;;11.52;100.00
59274;BME280;45044;41.572;24.730;2022-09-09T03:53:55;91738.09;;;11.37;100.00
59274;BME280;45044;41.572;24.730;2022-09-09T03:56:24;91743.31;;;11.30;100.00
59274;BME280;45044;41.572;24.730;2022-09-09T03:58:51;91727.09;;;11.21;100.00
59274;BME280;45044;41.572;24.730;2022-09-09T04:01:18;91735.72;;;11.18;100.00
59274;BME280;45044;41.572;24.730;2022-09-09T04:03:44;91747.81;;;11.26;100.00
59274;BME280;45044;41.572;24.730;2022-09-09T04:06:12;91740.31;;;11.28;100.00
59274;BME280;45044;41.572;24.730;2022-09-09T04:08:41;91738.81;;;11.34;100.00
59274;BME280;45044;41.572;24.730;2022-09-09T04:11:08;91741.84;;;11.36;100.00
59274;BME280;45044;41.572;24.730;2022-09-09T04:13:37;91749.41;;;11.45;100.00
59274;BME280;45044;41.572;24.730;2022-09-09T04:16:06;91748.69;;;11.48;100.00
59274;BME280;45044;41.572;24.730;2022-09-09T04:18:33;91735.88;;;11.47;100.00
59274;BME280;45044;41.572;24.730;2022-09-09T04:21:01;91738.19;;;11.52;100.00
59274;BME280;45044;41.572;24.730;2022-09-09T04:23:30;91738.22;;;11.59;100.00
59274;BME280;45044;41.572;24.730;2022-09-09T04:25:58;91741.97;;;11.58;100.00
59274;BME280;45044;41.572;24.730;2022-09-09T04:28:30;91741.25;;;11.65;100.00
59274;BME280;45044;41.572;24.730;2022-09-09T04:31:04;91744.63;;;11.62;100.00
59274;BME280;45044;41.572;24.730;2022-09-09T04:33:31;91730.38;;;11.67;100.00
59274;BME280;45044;41.572;24.730;2022-09-09T04:36:03;91743.47;;;11.52;100.00
59274;BME280;45044;41.572;24.730;2022-09-09T04:38:30;91707.28;;;11.42;100.00
59274;BME280;45044;41.572;24.730;2022-09-09T04:40:57;91732.22;;;11.62;100.00
59274;BME280;45044;41.572;24.730;2022-09-09T04:43:24;91734.91;;;11.73;100.00
59274;BME280;45044;41.572;24.730;2022-09-09T04:45:53;91741.28;;;11.76;100.00
59274;BME280;45044;41.572;24.730;2022-09-09T04:48:20;91740.19;;;11.81;100.00
59274;BME280;45044;41.572;24.730;2022-09-09T04:50:59;91746.97;;;11.82;100.00
59274;BME280;45044;41.572;24.730;2022-09-09T04:53:26;91753.03;;;11.90;100.00
59274;BME280;45044;41.572;24.730;2022-09-09T04:56:02;91746.25;;;11.96;100.00
59274;BME280;45044;41.572;24.730;2022-09-09T04:58:29;91748.19;;;12.06;100.00
59274;BME280;45044;41.572;24.730;2022-09-09T05:01:07;91747.47;;;12.09;100.00
59274;BME280;45044;41.572;24.730;2022-09-09T05:03:34;91753.56;;;12.21;100.00
59274;BME280;45044;41.572;24.730;2022-09-09T05:06:05;91750.94;;;12.32;100.00
59274;BME280;45044;41.572;24.730;2022-09-09T05:08:32;91747.56;;;12.39;100.00
59274;BME280;45044;41.572;24.730;2022-09-09T05:10:59;91744.94;;;12.46;100.00
59274;BME280;45044;41.572;24.730;2022-09-09T05:13:27;91747.59;;;12.57;100.00
59274;BME280;45044;41.572;24.730;2022-09-09T05:15:54;91749.88;;;12.66;100.00
59274;BME280;45044;41.572;24.730;2022-09-09T05:18:21;91746.84;;;12.71;100.00
59274;BME280;45044;41.572;24.730;2022-09-09T05:20:49;91746.50;;;13.05;100.00
59274;BME280;45044;41.572;24.730;2022-09-09T05:23:17;91743.97;;;14.89;100.00
59274;BME280;45044;41.572;24.730;2022-09-09T05:25:54;91731.81;;;17.01;100.00
59274;BME280;45044;41.572;24.730;2022-09-09T05:28:22;91731.94;;;18.81;100.00
59274;BME280;45044;41.572;24.730;2022-09-09T05:31:06;91732.75;;;20.33;100.00
59274;BME280;45044;41.572;24.730;2022-09-09T05:33:35;91732.75;;;21.25;91.64
59274;BME280;45044;41.572;24.730;2022-09-09T05:36:07;91739.13;;;22.11;78.46
59274;BME280;45044;41.572;24.730;2022-09-09T05:38:34;91729.34;;;23.32;67.42
59274;BME280;45044;41.572;24.730;2022-09-09T05:41:03;91725.06;;;24.00;63.73
59274;BME280;45044;41.572;24.730;2022-09-09T05:43:29;91719.34;;;24.88;59.17
59274;BME280;45044;41.572;24.730;2022-09-09T05:46:07;91725.56;;;25.78;54.11
59274;BME280;45044;41.572;24.730;2022-09-09T05:48:40;91727.66;;;25.58;54.58
59274;BME280;45044;41.572;24.730;2022-09-09T05:51:12;91719.97;;;25.66;54.06
59274;BME280;45044;41.572;24.730;2022-09-09T05:53:42;91724.72;;;26.11;52.13
59274;BME280;45044;41.572;24.730;2022-09-09T05:56:17;91730.00;;;26.81;49.86
59274;BME280;45044;41.572;24.730;2022-09-09T05:58:45;91727.19;;;26.90;49.54
59274;BME280;45044;41.572;24.730;2022-09-09T06:01:16;91727.97;;;27.69;47.64
59274;BME280;45044;41.572;24.730;2022-09-09T06:03:44;91731.41;;;28.38;46.21
59274;BME280;45044;41.572;24.730;2022-09-09T06:06:13;91728.28;;;28.45;45.55
59274;BME280;45044;41.572;24.730;2022-09-09T06:08:42;91724.41;;;28.84;44.87
59274;BME280;45044;41.572;24.730;2022-09-09T06:11:18;91716.13;;;29.37;42.52
59274;BME280;45044;41.572;24.730;2022-09-09T06:13:46;91703.88;;;29.53;42.11
59274;BME280;45044;41.572;24.730;2022-09-09T06:16:16;91713.25;;;29.52;42.63
59274;BME280;45044;41.572;24.730;2022-09-09T06:18:43;91710.34;;;29.62;42.85
59274;BME280;45044;41.572;24.730;2022-09-09T06:21:24;91704.25;;;29.73;42.44
59274;BME280;45044;41.572;24.730;2022-09-09T06:23:51;91693.28;;;30.28;42.47
59274;BME280;45044;41.572;24.730;2022-09-09T06:26:23;91704.88;;;30.57;40.48
59274;BME280;45044;41.572;24.730;2022-09-09T06:28:51;91712.78;;;30.95;38.89
59274;BME280;45044;41.572;24.730;2022-09-09T06:31:21;91699.94;;;31.84;38.59
59274;BME280;45044;41.572;24.730;2022-09-09T06:33:55;91697.28;;;32.57;36.84
59274;BME280;45044;41.572;24.730;2022-09-09T06:36:24;91686.69;;;32.84;36.60
59274;BME280;45044;41.572;24.730;2022-09-09T06:38:52;91684.94;;;32.87;36.05
59274;BME280;45044;41.572;24.730;2022-09-09T06:41:20;91685.84;;;32.95;36.33
59274;BME280;45044;41.572;24.730;2022-09-09T06:43:48;91681.69;;;30.73;40.18
59274;BME280;45044;41.572;24.730;2022-09-09T06:46:20;91693.13;;;31.60;38.97
59274;BME280;45044;41.572;24.730;2022-09-09T06:48:48;91691.72;;;31.30;38.71
59274;BME280;45044;41.572;24.730;2022-09-09T06:51:17;91699.81;;;31.53;39.52
59274;BME280;45044;41.572;24.730;2022-09-09T06:53:45;91688.78;;;32.36;37.52
59274;BME280;45044;41.572;24.730;2022-09-09T06:56:21;91687.47;;;32.43;37.36
59274;BME280;45044;41.572;24.730;2022-09-09T06:58:53;91688.19;;;32.49;37.15
59274;BME280;45044;41.572;24.730;2022-09-09T07:01:24;91691.47;;;31.94;37.91
59274;BME280;45044;41.572;24.730;2022-09-09T07:03:53;91691.63;;;33.17;36.50
59274;BME280;45044;41.572;24.730;2022-09-09T07:06:23;91693.34;;;34.03;34.67
59274;BME280;45044;41.572;24.730;2022-09-09T07:08:58;91697.34;;;34.73;34.32
59274;BME280;45044;41.572;24.730;2022-09-09T07:11:27;91704.69;;;34.92;32.81
59274;BME280;45044;41.572;24.730;2022-09-09T07:13:56;91694.84;;;35.16;33.68
59274;BME280;45044;41.572;24.730;2022-09-09T07:16:24;91687.88;;;34.88;33.69
59274;BME280;45044;41.572;24.730;2022-09-09T07:18:52;91696.88;;;32.47;37.40
59274;BME280;45044;41.572;24.730;2022-09-09T07:21:19;91700.78;;;33.39;35.56
59274;BME280;45044;41.572;24.730;2022-09-09T07:23:47;91683.41;;;31.82;37.77
59274;BME280;45044;41.572;24.730;2022-09-09T07:26:16;91693.81;;;32.26;37.72
59274;BME280;45044;41.572;24.730;2022-09-09T07:28:43;91694.03;;;33.45;34.85
59274;BME280;45044;41.572;24.730;2022-09-09T07:31:17;91700.63;;;33.31;35.62
59274;BME280;45044;41.572;24.730;2022-09-09T07:33:45;91692.63;;;32.15;37.15
59274;BME280;45044;41.572;24.730;2022-09-09T07:36:15;91697.56;;;31.63;38.88
59274;BME280;45044;41.572;24.730;2022-09-09T07:38:47;91694.03;;;30.92;39.35
59274;BME280;45044;41.572;24.730;2022-09-09T07:41:23;91692.66;;;31.56;39.02
59274;BME280;45044;41.572;24.730;2022-09-09T07:43:51;91688.75;;;31.34;39.34
59274;BME280;45044;41.572;24.730;2022-09-09T07:46:22;91691.69;;;29.75;43.25
59274;BME280;45044;41.572;24.730;2022-09-09T07:48:52;91693.31;;;30.91;40.85
59274;BME280;45044;41.572;24.730;2022-09-09T07:51:27;91693.25;;;30.11;42.64
59274;BME280;45044;41.572;24.730;2022-09-09T07:53:59;91688.47;;;29.16;45.57
59274;BME280;45044;41.572;24.730;2022-09-09T07:56:29;91691.75;;;29.98;44.92
59274;BME280;45044;41.572;24.730;2022-09-09T07:58:56;91682.72;;;31.70;41.12
59274;BME280;45044;41.572;24.730;2022-09-09T08:01:33;91689.09;;;30.79;41.73
59274;BME280;45044;41.572;24.730;2022-09-09T08:04:04;91676.72;;;31.83;43.01
59274;BME280;45044;41.572;24.730;2022-09-09T08:06:37;91649.06;;;31.79;40.53
59274;BME280;45044;41.572;24.730;2022-09-09T08:09:06;91675.44;;;31.25;41.49
59274;BME280;45044;41.572;24.730;2022-09-09T08:11:33;91678.94;;;31.19;42.35
59274;BME280;45044;41.572;24.730;2022-09-09T08:14:05;91678.00;;;31.00;42.15
59274;BME280;45044;41.572;24.730;2022-09-09T08:16:37;91662.06;;;31.98;40.91
59274;BME280;45044;41.572;24.730;2022-09-09T08:19:04;91669.38;;;31.66;41.74
59274;BME280;45044;41.572;24.730;2022-09-09T08:21:35;91663.56;;;32.35;40.30
59274;BME280;45044;41.572;24.730;2022-09-09T08:24:04;91665.97;;;32.45;39.55
59274;BME280;45044;41.572;24.730;2022-09-09T08:26:35;91660.00;;;31.67;41.21
59274;BME280;45044;41.572;24.730;2022-09-09T08:29:05;91658.13;;;31.51;39.94
59274;BME280;45044;41.572;24.730;2022-09-09T08:31:44;91660.50;;;32.81;39.48
59274;BME280;45044;41.572;24.730;2022-09-09T08:34:12;91659.97;;;32.58;39.38
59274;BME280;45044;41.572;24.730;2022-09-09T08:36:41;91649.69;;;33.45;37.35
59274;BME280;45044;41.572;24.730;2022-09-09T08:39:11;91660.53;;;34.61;34.41
59274;BME280;45044;41.572;24.730;2022-09-09T08:52:40;91649.44;;;33.68;35.09
59274;BME280;45044;41.572;24.730;2022-09-09T08:57:54;91642.22;;;33.51;34.71
59274;BME280;45044;41.572;24.730;2022-09-09T09:00:22;91641.53;;;33.26;35.80
59274;BME280;45044;41.572;24.730;2022-09-09T09:05:47;91636.34;;;33.66;35.77
59274;BME280;45044;41.572;24.730;2022-09-09T09:10:49;91634.53;;;33.30;36.55
59274;BME280;45044;41.572;24.730;2022-09-09T09:13:26;91629.41;;;33.65;35.76
59274;BME280;45044;41.572;24.730;2022-09-09T09:15:58;91627.31;;;33.52;36.21
59274;BME280;45044;41.572;24.730;2022-09-09T09:18:26;91631.81;;;34.08;36.62
59274;BME280;45044;41.572;24.730;2022-09-09T09:21:34;91623.41;;;33.03;36.09
59274;BME280;45044;41.572;24.730;2022-09-09T09:24:03;91630.47;;;32.93;35.73
59274;BME280;45044;41.572;24.730;2022-09-09T09:26:34;91625.00;;;32.93;36.21
59274;BME280;45044;41.572;24.730;2022-09-09T09:29:11;91628.09;;;32.22;36.39
59274;BME280;45044;41.572;24.730;2022-09-09T09:31:38;91625.97;;;32.95;38.53
59274;BME280;45044;41.572;24.730;2022-09-09T09:34:05;91623.34;;;31.91;40.36
59274;BME280;45044;41.572;24.730;2022-09-09T09:36:40;91617.94;;;31.86;40.16
59274;BME280;45044;41.572;24.730;2022-09-09T09:39:08;91622.47;;;32.45;37.85
59274;BME280;45044;41.572;24.730;2022-09-09T09:41:56;91621.06;;;30.65;40.60
59274;BME280;45044;41.572;24.730;2022-09-09T09:44:30;91624.22;;;29.66;43.93
59274;BME280;45044;41.572;24.730;2022-09-09T09:47:07;91611.75;;;30.26;42.23
59274;BME280;45044;41.572;24.730;2022-09-09T09:49:34;91617.63;;;30.47;44.07
59274;BME280;45044;41.572;24.730;2022-09-09T09:52:02;91603.97;;;29.56;47.29
59274;BME280;45044;41.572;24.730;2022-09-09T09:54:33;91602.09;;;28.63;42.31
59274;BME280;45044;41.572;24.730;2022-09-09T09:57:14;91612.44;;;28.64;42.39
59274;BME280;45044;41.572;24.730;2022-09-09T09:59:43;91615.22;;;29.31;43.68
59274;BME280;45044;41.572;24.730;2022-09-09T10:02:13;91614.66;;;29.99;42.56
59274;BME280;45044;41.572;24.730;2022-09-09T10:04:40;91613.88;;;28.60;41.55
59274;BME280;45044;41.572;24.730;2022-09-09T10:07:12;91612.41;;;28.26;43.20
59274;BME280;45044;41.572;24.730;2022-09-09T10:09:40;91618.28;;;28.57;45.70
59274;BME280;45044;41.572;24.730;2022-09-09T10:48:37;91599.84;;;27.01;43.59
59274;BME280;45044;41.572;24.730;2022-09-09T10:51:28;91597.00;;;27.53;43.18
59274;BME280;45044;41.572;24.730;2022-09-09T10:56:26;91610.81;;;27.13;43.39
59274;BME280;45044;41.572;24.730;2022-09-09T10:59:12;91608.97;;;27.46;44.93
59274;BME280;45044;41.572;24.730;2022-09-09T11:01:44;91602.19;;;27.56;44.31
59274;BME280;45044;41.572;24.730;2022-09-09T11:04:19;91601.78;;;27.63;44.32
59274;BME280;45044;41.572;24.730;2022-09-09T11:06:54;91586.88;;;27.95;43.22
59274;BME280;45044;41.572;24.730;2022-09-09T11:09:23;91587.47;;;28.10;45.49
59274;BME280;45044;41.572;24.730;2022-09-09T11:11:55;91588.19;;;28.38;44.65
59274;BME280;45044;41.572;24.730;2022-09-09T11:14:37;91581.63;;;28.50;42.61
59274;BME280;45044;41.572;24.730;2022-09-09T11:17:14;91584.69;;;28.31;43.53
59274;BME280;45044;41.572;24.730;2022-09-09T11:19:44;91583.19;;;28.30;43.04
59274;BME280;45044;41.572;24.730;2022-09-09T11:22:27;91581.31;;;28.04;43.97
59274;BME280;45044;41.572;24.730;2022-09-09T11:31:06;91590.91;;;27.31;45.98
59274;BME280;45044;41.572;24.730;2022-09-09T11:36:54;91588.31;;;27.43;41.94
59274;BME280;45044;41.572;24.730;2022-09-09T11:39:32;91569.47;;;27.22;44.14
59274;BME280;45044;41.572;24.730;2022-09-09T11:42:21;91575.31;;;27.68;44.90
59274;BME280;45044;41.572;24.730;2022-09-09T11:44:48;91578.50;;;27.93;46.48
59274;BME280;45044;41.572;24.730;2022-09-09T11:47:28;91587.47;;;26.89;47.39
59274;BME280;45044;41.572;24.730;2022-09-09T11:50:37;91550.84;;;26.82;50.76
59274;BME280;45044;41.572;24.730;2022-09-09T11:53:25;91569.13;;;27.61;48.95
59274;BME280;45044;41.572;24.730;2022-09-09T11:56:13;91561.88;;;27.47;48.46
59274;BME280;45044;41.572;24.730;2022-09-09T11:58:55;91564.72;;;26.96;50.97
59274;BME280;45044;41.572;24.730;2022-09-09T12:01:34;91553.88;;;26.90;49.43
59274;BME280;45044;41.572;24.730;2022-09-09T12:11:49;91550.59;;;26.08;56.67
59274;BME280;45044;41.572;24.730;2022-09-09T12:15:18;91546.03;;;25.99;53.77
59274;BME280;45044;41.572;24.730;2022-09-09T12:17:28;91547.91;;;25.93;56.70
59274;BME280;45044;41.572;24.730;2022-09-09T12:28:20;91541.56;;;26.11;56.91
59274;BME280;45044;41.572;24.730;2022-09-09T12:31:04;91527.13;;;26.65;59.82
59274;BME280;45044;41.572;24.730;2022-09-09T12:33:35;91522.09;;;26.37;56.79
59274;BME280;45044;41.572;24.730;2022-09-09T12:36:04;91503.00;;;26.56;56.89
59274;BME280;45044;41.572;24.730;2022-09-09T12:38:41;91512.91;;;26.44;57.58
59274;BME280;45044;41.572;24.730;2022-09-09T12:41:22;91513.22;;;26.52;57.87
59274;BME280;45044;41.572;24.730;2022-09-09T12:43:49;91492.69;;;26.54;59.18
59274;BME280;45044;41.572;24.730;2022-09-09T12:46:29;91508.00;;;26.42;59.58
59274;BME280;45044;41.572;24.730;2022-09-09T12:48:58;91501.34;;;26.59;58.50
59274;BME280;45044;41.572;24.730;2022-09-09T12:51:28;91504.31;;;26.61;59.25
59274;BME280;45044;41.572;24.730;2022-09-09T12:53:56;91506.44;;;26.77;58.98
59274;BME280;45044;41.572;24.730;2022-09-09T12:56:30;91504.00;;;26.79;59.87
59274;BME280;45044;41.572;24.730;2022-09-09T12:58:59;91498.94;;;26.66;61.47
59274;BME280;45044;41.572;24.730;2022-09-09T13:01:29;91491.75;;;26.78;59.93
59274;BME280;45044;41.572;24.730;2022-09-09T13:03:57;91493.28;;;26.85;58.30
59274;BME280;45044;41.572;24.730;2022-09-09T13:06:28;91485.00;;;26.89;59.42
59274;BME280;45044;41.572;24.730;2022-09-09T13:08:58;91487.53;;;26.72;59.88
59274;BME280;45044;41.572;24.730;2022-09-09T13:11:38;91495.19;;;26.58;58.32
59274;BME280;45044;41.572;24.730;2022-09-09T13:14:06;91489.34;;;26.24;59.58
59274;BME280;45044;41.572;24.730;2022-09-09T13:16:35;91493.41;;;26.34;63.21
59274;BME280;45044;41.572;24.730;2022-09-09T13:19:15;91497.31;;;26.33;62.12
59274;BME280;45044;41.572;24.730;2022-09-09T13:21:43;91499.34;;;26.38;64.62
59274;BME280;45044;41.572;24.730;2022-09-09T13:24:26;91495.09;;;26.31;69.30
59274;BME280;45044;41.572;24.730;2022-09-09T13:27:01;91492.72;;;26.18;66.90
59274;BME280;45044;41.572;24.730;2022-09-09T13:29:30;91491.00;;;26.00;68.30
59274;BME280;45044;41.572;24.730;2022-09-09T13:32:04;91500.97;;;25.79;69.60
59274;BME280;45044;41.572;24.730;2022-09-09T13:34:34;91492.63;;;26.13;69.35
59274;BME280;45044;41.572;24.730;2022-09-09T13:37:06;91487.06;;;26.16;70.38
59274;BME280;45044;41.572;24.730;2022-09-09T13:39:51;91482.59;;;26.13;70.19
59274;BME280;45044;41.572;24.730;2022-09-09T13:42:32;91480.81;;;25.89;73.10
59274;BME280;45044;41.572;24.730;2022-09-09T13:45:04;91476.47;;;25.77;73.31
59274;BME280;45044;41.572;24.730;2022-09-09T13:47:35;91487.75;;;25.81;72.72
59274;BME280;45044;41.572;24.730;2022-09-09T13:50:28;91480.16;;;25.64;78.59
59274;BME280;45044;41.572;24.730;2022-09-09T13:52:57;91475.63;;;25.70;75.69
59274;BME280;45044;41.572;24.730;2022-09-09T13:55:27;91476.81;;;25.84;79.68
59274;BME280;45044;41.572;24.730;2022-09-09T13:58:02;91468.50;;;25.37;76.66
59274;BME280;45044;41.572;24.730;2022-09-09T14:00:30;91470.16;;;25.50;81.98
59274;BME280;45044;41.572;24.730;2022-09-09T14:02:58;91469.03;;;25.41;80.68
59274;BME280;45044;41.572;24.730;2022-09-09T14:05:26;91468.88;;;25.30;78.33
59274;BME280;45044;41.572;24.730;2022-09-09T14:07:53;91469.59;;;25.15;80.12
59274;BME280;45044;41.572;24.730;2022-09-09T14:10:20;91480.38;;;25.15;80.84
59274;BME280;45044;41.572;24.730;2022-09-09T14:12:48;91470.97;;;24.95;81.15
59274;BME280;45044;41.572;24.730;2022-09-09T14:15:15;91467.56;;;25.10;82.32
59274;BME280;45044;41.572;24.730;2022-09-09T14:17:42;91472.47;;;25.11;81.42
59274;BME280;45044;41.572;24.730;2022-09-09T14:20:10;91464.72;;;24.89;79.86
59274;BME280;45044;41.572;24.730;2022-09-09T14:22:38;91474.31;;;25.05;83.51
59274;BME280;45044;41.572;24.730;2022-09-09T14:25:06;91463.44;;;24.84;81.34
59274;BME280;45044;41.572;24.730;2022-09-09T14:27:33;91461.81;;;24.77;81.99
59274;BME280;45044;41.572;24.730;2022-09-09T14:30:00;91446.44;;;24.38;86.44
59274;BME280;45044;41.572;24.730;2022-09-09T14:32:27;91457.56;;;24.71;84.35
59274;BME280;45044;41.572;24.730;2022-09-09T14:34:54;91469.34;;;24.88;88.67
59274;BME280;45044;41.572;24.730;2022-09-09T14:37:21;91476.06;;;24.69;86.66
59274;BME280;45044;41.572;24.730;2022-09-09T14:39:47;91458.31;;;24.47;86.12
59274;BME280;45044;41.572;24.730;2022-09-09T14:42:17;91459.88;;;24.38;87.37
59274;BME280;45044;41.572;24.730;2022-09-09T14:44:44;91450.38;;;24.52;90.41
59274;BME280;45044;41.572;24.730;2022-09-09T14:47:11;91461.88;;;24.53;84.13
59274;BME280;45044;41.572;24.730;2022-09-09T14:49:38;91458.28;;;24.32;86.85
59274;BME280;45044;41.572;24.730;2022-09-09T14:52:09;91475.06;;;24.17;89.20
59274;BME280;45044;41.572;24.730;2022-09-09T14:54:36;91460.19;;;24.07;91.88
59274;BME280;45044;41.572;24.730;2022-09-09T14:57:03;91464.66;;;24.10;90.32
59274;BME280;45044;41.572;24.730;2022-09-09T14:59:29;91457.81;;;23.99;90.29
59274;BME280;45044;41.572;24.730;2022-09-09T15:01:56;91456.06;;;23.96;91.45
59274;BME280;45044;41.572;24.730;2022-09-09T15:04:23;91464.69;;;24.00;93.18
59274;BME280;45044;41.572;24.730;2022-09-09T15:06:50;91476.69;;;23.90;95.04
59274;BME280;45044;41.572;24.730;2022-09-09T15:09:19;91462.88;;;23.73;93.08
59274;BME280;45044;41.572;24.730;2022-09-09T15:11:46;91464.75;;;23.91;98.17
59274;BME280;45044;41.572;24.730;2022-09-09T15:14:13;91463.78;;;24.03;93.37
59274;BME280;45044;41.572;24.730;2022-09-09T15:16:40;91459.44;;;23.72;95.72